Time;durP1;ratioP1;P1;durP2;ratioP2;P2;SDS_P1;SDS_P2;PMS_P1;PMS_P2;Temp;Humidity;BMP_temperature;BMP_pressure;BME280_temperature;BME280_humidity;BME280_pressure;Samples;Min_cycle;Max_cycle;Signal;HPM_P1;HPM_P2
2023/11/25 00:00:22;;;;;;;4.67;1.80;;;6.40;99.90;;;;;;5043811;28;20430;-67
2023/11/25 00:02:49;;;;;;;4.23;1.47;;;6.40;99.90;;;;;;5042779;28;20203;-67
2023/11/25 00:05:15;;;;;;;4.10;1.67;;;6.30;99.90;;;;;;5043577;28;20831;-67
2023/11/25 00:07:41;;;;;;;5.27;1.77;;;6.30;99.90;;;;;;5046565;28;20993;-67
2023/11/25 00:10:09;;;;;;;3.60;1.43;;;6.30;99.90;;;;;;5046435;28;20465;-67
2023/11/25 00:12:35;;;;;;;4.03;1.30;;;6.30;99.90;;;;;;5040587;28;20360;-67
2023/11/25 00:15:01;;;;;;;4.47;1.30;;;6.30;99.90;;;;;;5043946;28;20425;-67
2023/11/25 00:17:28;;;;;;;1.90;1.30;;;6.30;99.90;;;;;;5039688;28;20419;-67
2023/11/25 00:19:57;;;;;;;2.20;1.30;;;6.30;99.90;;;;;;5043632;28;20434;-67
2023/11/25 00:22:23;;;;;;;7.67;1.53;;;6.20;99.90;;;;;;5042136;28;20747;-67
2023/11/25 00:24:49;;;;;;;3.50;1.70;;;6.20;99.90;;;;;;5042709;28;20414;-67
2023/11/25 00:27:15;;;;;;;9.03;1.80;;;6.20;99.90;;;;;;5045675;28;20793;-67
2023/11/25 00:29:41;;;;;;;4.80;1.80;;;6.20;99.90;;;;;;5038836;28;20472;-67
2023/11/25 00:32:10;;;;;;;3.17;1.47;;;6.20;99.90;;;;;;5049381;28;20428;-67
2023/11/25 00:34:36;;;;;;;4.67;1.70;;;6.30;99.90;;;;;;5040561;28;20426;-67
2023/11/25 00:37:02;;;;;;;4.00;1.77;;;6.40;99.90;;;;;;5044168;28;20441;-67
2023/11/25 00:39:29;;;;;;;3.70;1.50;;;6.40;99.90;;;;;;5042244;28;21020;-67
2023/11/25 00:41:55;;;;;;;7.10;2.00;;;6.50;99.90;;;;;;5045942;28;20429;-67
2023/11/25 00:44:20;;;;;;;2.53;1.40;;;6.50;99.90;;;;;;5044308;28;20525;-67
2023/11/25 00:46:47;;;;;;;2.77;1.47;;;6.60;99.90;;;;;;5043392;28;20911;-67
2023/11/25 00:49:14;;;;;;;3.60;1.60;;;6.50;99.90;;;;;;5044763;28;20207;-67
2023/11/25 00:51:40;;;;;;;3.73;1.43;;;6.60;99.90;;;;;;5040295;28;20506;-67
2023/11/25 00:54:06;;;;;;;4.43;1.30;;;6.50;99.90;;;;;;5049605;28;20513;-67
2023/11/25 00:56:32;;;;;;;3.47;1.70;;;6.50;99.90;;;;;;5042369;28;20433;-67
2023/11/25 00:58:57;;;;;;;4.43;1.70;;;6.50;99.90;;;;;;5045313;28;20206;-67
2023/11/25 01:01:24;;;;;;;5.23;2.00;;;6.50;99.90;;;;;;5043958;28;20193;-67
2023/11/25 01:03:49;;;;;;;4.57;1.90;;;6.50;99.90;;;;;;5048312;28;20195;-67
2023/11/25 01:06:15;;;;;;;4.00;1.70;;;6.50;99.90;;;;;;5036919;28;20442;-67
2023/11/25 01:08:40;;;;;;;3.87;1.50;;;6.50;99.90;;;;;;5044385;28;20277;-67
2023/11/25 01:11:06;;;;;;;3.83;1.50;;;6.60;99.90;;;;;;5042168;28;20183;-67
2023/11/25 01:13:32;;;;;;;5.97;2.10;;;6.60;99.90;;;;;;5040436;28;20548;-67
2023/11/25 01:16:00;;;;;;;11.43;2.90;;;6.50;99.90;;;;;;5038919;28;20179;-67
2023/11/25 01:18:26;;;;;;;5.47;1.70;;;6.50;99.90;;;;;;5042919;28;20184;-67
2023/11/25 01:20:55;;;;;;;4.33;1.50;;;6.40;99.90;;;;;;5040846;28;20414;-67
2023/11/25 01:23:21;;;;;;;10.93;1.63;;;6.40;99.90;;;;;;5036565;28;20506;-67
2023/11/25 01:25:48;;;;;;;5.50;1.80;;;6.30;99.90;;;;;;5041637;28;20409;-67
2023/11/25 01:28:14;;;;;;;6.57;3.00;;;6.20;99.90;;;;;;5046647;28;20967;-67
2023/11/25 01:30:39;;;;;;;5.97;2.17;;;6.20;99.90;;;;;;5045182;28;20438;-67
2023/11/25 01:33:06;;;;;;;5.10;2.50;;;6.20;99.90;;;;;;5043323;28;20199;-67
2023/11/25 01:35:32;;;;;;;9.87;2.37;;;6.20;99.90;;;;;;5037978;28;20187;-67
2023/11/25 01:37:58;;;;;;;3.93;1.70;;;6.20;99.90;;;;;;5041584;28;20896;-67
2023/11/25 01:40:23;;;;;;;6.97;2.00;;;6.10;99.90;;;;;;5040796;28;20439;-67
2023/11/25 01:42:50;;;;;;;4.90;1.90;;;6.10;99.90;;;;;;5029355;28;20226;-67
2023/11/25 01:45:15;;;;;;;5.80;1.57;;;6.10;99.90;;;;;;5026750;28;20220;-67
2023/11/25 01:47:42;;;;;;;5.53;1.93;;;6.10;99.90;;;;;;5040996;28;20450;-67
2023/11/25 01:50:10;;;;;;;9.07;2.03;;;6.20;99.90;;;;;;5040472;28;20269;-67
2023/11/25 01:52:37;;;;;;;5.40;1.83;;;6.20;99.90;;;;;;5042279;28;20445;-67
2023/11/25 01:55:03;;;;;;;4.40;1.63;;;6.30;99.90;;;;;;5042361;28;20422;-67
2023/11/25 01:57:30;;;;;;;3.67;1.90;;;6.30;99.90;;;;;;5039937;28;20465;-67
2023/11/25 01:59:56;;;;;;;2.20;1.47;;;6.30;99.90;;;;;;5038561;28;20450;-67
2023/11/25 02:02:28;;;;;;;2.73;1.63;;;6.30;99.90;;;;;;5042676;28;21017;-68
2023/11/25 02:04:54;;;;;;;2.80;2.10;;;6.30;99.90;;;;;;5039964;28;20467;-68
2023/11/25 02:07:21;;;;;;;2.87;1.70;;;6.30;99.90;;;;;;5042346;28;20476;-67
2023/11/25 02:09:46;;;;;;;4.20;2.10;;;6.20;99.90;;;;;;5038963;28;20553;-67
2023/11/25 02:12:12;;;;;;;6.67;2.00;;;6.30;99.90;;;;;;5031967;28;20510;-67
2023/11/25 02:14:38;;;;;;;5.90;1.70;;;6.30;99.90;;;;;;5041054;28;20203;-67
2023/11/25 02:17:04;;;;;;;6.67;2.07;;;6.30;99.90;;;;;;5038348;28;20172;-67
2023/11/25 02:19:31;;;;;;;8.80;1.90;;;6.30;99.90;;;;;;5041275;28;20259;-68
2023/11/25 02:21:57;;;;;;;6.30;1.70;;;6.30;99.90;;;;;;5038600;28;20422;-68
2023/11/25 02:24:26;;;;;;;5.30;2.03;;;6.30;99.90;;;;;;5042599;28;20483;-68
2023/11/25 02:26:59;;;;;;;2.93;1.73;;;6.20;99.90;;;;;;5039719;28;20468;-68
2023/11/25 02:29:25;;;;;;;3.93;1.87;;;6.20;99.90;;;;;;5041012;28;20465;-67
2023/11/25 02:31:50;;;;;;;3.00;1.60;;;6.30;99.90;;;;;;5043899;28;21383;-67
2023/11/25 02:34:16;;;;;;;7.23;2.00;;;6.20;99.90;;;;;;5033821;28;20972;-67
2023/11/25 02:36:41;;;;;;;6.53;1.87;;;6.10;99.90;;;;;;5038450;28;20188;-67
2023/11/25 02:39:07;;;;;;;4.50;1.90;;;6.00;99.90;;;;;;5039986;28;20253;-67
2023/11/25 02:41:34;;;;;;;4.77;1.77;;;6.00;99.90;;;;;;5044308;28;20467;-67
2023/11/25 02:43:59;;;;;;;4.03;1.40;;;5.90;99.90;;;;;;5042608;28;20251;-67
2023/11/25 02:46:25;;;;;;;4.00;1.87;;;5.80;99.90;;;;;;5037042;28;20460;-68
2023/11/25 02:48:51;;;;;;;6.03;1.87;;;5.80;99.90;;;;;;5034652;28;20317;-67
2023/11/25 02:51:16;;;;;;;6.07;2.03;;;5.80;99.90;;;;;;5042747;28;20195;-67
2023/11/25 02:53:42;;;;;;;5.53;2.10;;;5.80;99.90;;;;;;5040268;28;20662;-67
2023/11/25 02:56:08;;;;;;;4.83;2.03;;;5.80;99.90;;;;;;5038078;28;20441;-67
2023/11/25 02:58:35;;;;;;;4.07;1.73;;;5.90;99.90;;;;;;5035792;28;20199;-67
2023/11/25 03:01:05;;;;;;;2.37;1.50;;;5.90;99.90;;;;;;5033755;28;20221;-69
2023/11/25 03:03:36;;;;;;;4.03;2.00;;;5.80;99.90;;;;;;5031401;28;20457;-67
2023/11/25 03:06:02;;;;;;;3.40;1.70;;;5.90;99.90;;;;;;5037043;28;20415;-67
2023/11/25 03:08:27;;;;;;;5.77;1.70;;;5.80;99.90;;;;;;5041222;28;20434;-67
2023/11/25 03:10:53;;;;;;;3.53;1.67;;;5.80;99.90;;;;;;5041210;28;20184;-67
2023/11/25 03:13:18;;;;;;;6.17;1.80;;;5.90;99.90;;;;;;5039046;28;20691;-68
2023/11/25 03:15:45;;;;;;;5.80;2.07;;;5.80;99.90;;;;;;5038921;28;20179;-67
2023/11/25 03:18:10;;;;;;;4.40;2.10;;;5.80;99.90;;;;;;5038274;28;20515;-67
2023/11/25 03:20:42;;;;;;;5.73;1.80;;;5.60;99.90;;;;;;5038882;28;20756;-67
2023/11/25 03:23:07;;;;;;;6.23;1.80;;;5.50;99.90;;;;;;5039466;28;20269;-67
2023/11/25 03:25:33;;;;;;;5.40;1.67;;;5.50;99.90;;;;;;5039917;28;20418;-68
2023/11/25 03:28:04;;;;;;;6.10;2.10;;;5.60;99.90;;;;;;5036645;28;20211;-67
2023/11/25 03:30:30;;;;;;;4.57;1.50;;;5.60;99.90;;;;;;5031931;28;20454;-67
2023/11/25 03:32:55;;;;;;;6.10;1.80;;;5.50;99.90;;;;;;5033489;28;20499;-67
2023/11/25 03:35:21;;;;;;;2.63;1.70;;;5.50;99.90;;;;;;5038818;28;20204;-67
2023/11/25 03:37:47;;;;;;;5.53;2.00;;;5.40;99.90;;;;;;5039493;28;20187;-67
2023/11/25 03:40:15;;;;;;;3.20;1.47;;;5.50;99.90;;;;;;5040910;28;20275;-67
2023/11/25 03:42:44;;;;;;;6.60;1.60;;;5.30;99.90;;;;;;5037410;28;20265;-68
2023/11/25 03:45:13;;;;;;;7.40;2.07;;;5.30;99.90;;;;;;5042914;28;20502;-67
2023/11/25 03:47:43;;;;;;;4.53;1.63;;;5.20;99.90;;;;;;5040297;28;20539;-67
2023/11/25 03:50:11;;;;;;;7.00;1.80;;;5.20;99.90;;;;;;5037397;28;20494;-67
2023/11/25 03:52:43;;;;;;;5.40;1.90;;;5.10;99.90;;;;;;5036679;28;20477;-67
2023/11/25 03:55:09;;;;;;;2.60;1.60;;;5.10;99.90;;;;;;5041762;28;20409;-67
2023/11/25 03:57:39;;;;;;;5.73;1.73;;;5.00;99.90;;;;;;5037344;28;20442;-67
2023/11/25 04:00:14;;;;;;;6.23;2.10;;;4.90;99.90;;;;;;5041699;28;20418;-67
2023/11/25 04:02:43;;;;;;;3.27;1.77;;;4.90;99.90;;;;;;5035273;28;21039;-66
2023/11/25 04:05:10;;;;;;;4.33;2.20;;;4.80;99.90;;;;;;5037438;28;20487;-68
2023/11/25 04:07:36;;;;;;;6.20;2.00;;;4.80;99.90;;;;;;5039632;28;20792;-67
2023/11/25 04:10:12;;;;;;;6.23;2.23;;;4.70;99.90;;;;;;5037387;28;20469;-68
2023/11/25 04:12:47;;;;;;;4.03;1.87;;;4.80;99.90;;;;;;5037685;28;20205;-68
2023/11/25 04:15:15;;;;;;;4.87;1.80;;;4.90;99.90;;;;;;5042114;28;20413;-67
2023/11/25 04:17:41;;;;;;;3.33;1.90;;;4.90;99.90;;;;;;5040159;28;20435;-68
2023/11/25 04:20:14;;;;;;;4.40;1.70;;;4.80;99.90;;;;;;5034994;28;20621;-68
2023/11/25 04:22:44;;;;;;;3.37;1.60;;;4.80;99.90;;;;;;5039890;28;20507;-68
2023/11/25 04:25:11;;;;;;;4.30;2.23;;;4.80;99.90;;;;;;5038450;28;20419;-68
2023/11/25 04:27:42;;;;;;;7.47;1.97;;;4.80;99.90;;;;;;5044395;28;20545;-68
2023/11/25 04:30:09;;;;;;;8.70;2.30;;;4.80;99.90;;;;;;5041499;28;20482;-68
2023/11/25 04:32:35;;;;;;;2.83;1.50;;;4.70;99.90;;;;;;5043208;28;20516;-68
2023/11/25 04:35:03;;;;;;;5.40;2.03;;;4.60;99.90;;;;;;5039483;28;20422;-68
2023/11/25 04:37:29;;;;;;;3.43;1.60;;;4.60;99.90;;;;;;5045878;28;20431;-68
2023/11/25 04:39:55;;;;;;;5.23;1.67;;;4.60;99.90;;;;;;5043354;28;20501;-68
2023/11/25 04:42:20;;;;;;;5.13;2.00;;;4.60;99.90;;;;;;5041228;28;20517;-68
2023/11/25 04:44:46;;;;;;;5.93;1.63;;;4.50;99.90;;;;;;5041334;28;20210;-68
2023/11/25 04:47:11;;;;;;;7.60;2.70;;;4.50;99.90;;;;;;5040791;28;20230;-68
2023/11/25 04:49:37;;;;;;;5.80;1.77;;;4.50;99.90;;;;;;5043075;28;20219;-68
2023/11/25 04:52:04;;;;;;;3.17;1.50;;;4.40;99.90;;;;;;5039474;28;20183;-68
2023/11/25 04:54:30;;;;;;;4.63;1.73;;;4.60;99.90;;;;;;5041709;28;20287;-68
2023/11/25 04:56:55;;;;;;;3.60;2.20;;;4.50;99.90;;;;;;5043273;28;20502;-68
2023/11/25 04:59:21;;;;;;;6.50;1.70;;;4.50;99.90;;;;;;5039698;28;20189;-68
2023/11/25 05:01:47;;;;;;;5.37;1.80;;;4.50;99.90;;;;;;5036166;28;20181;-68
2023/11/25 05:04:12;;;;;;;3.63;1.50;;;4.60;99.90;;;;;;5037956;28;20199;-68
2023/11/25 05:06:38;;;;;;;4.07;1.80;;;4.50;99.90;;;;;;5040823;28;20238;-68
2023/11/25 05:09:05;;;;;;;4.30;1.40;;;4.60;99.90;;;;;;5042629;28;20192;-68
2023/11/25 05:11:30;;;;;;;5.77;1.60;;;4.60;99.90;;;;;;5045310;28;20185;-68
2023/11/25 05:13:57;;;;;;;7.13;2.20;;;4.60;99.90;;;;;;5038320;28;20450;-68
2023/11/25 05:16:23;;;;;;;3.47;1.70;;;4.60;99.90;;;;;;5046361;28;20168;-68
2023/11/25 05:18:49;;;;;;;4.40;1.70;;;4.60;99.90;;;;;;5037803;28;20435;-68
2023/11/25 05:21:15;;;;;;;3.80;2.10;;;4.60;99.90;;;;;;5044910;28;20440;-67
2023/11/25 05:23:40;;;;;;;3.90;1.60;;;4.70;99.90;;;;;;5043536;28;20230;-67
2023/11/25 05:26:07;;;;;;;5.37;1.80;;;4.70;99.90;;;;;;5039891;28;20214;-67
2023/11/25 05:28:33;;;;;;;2.70;1.73;;;4.70;99.90;;;;;;5036107;28;20185;-67
2023/11/25 05:30:59;;;;;;;5.27;2.07;;;4.80;99.90;;;;;;5043015;28;20467;-67
2023/11/25 05:33:25;;;;;;;5.60;1.50;;;4.70;99.90;;;;;;5039843;28;21427;-67
2023/11/25 05:35:50;;;;;;;6.30;2.73;;;4.70;99.90;;;;;;5039673;28;20187;-66
2023/11/25 05:38:18;;;;;;;8.70;1.87;;;4.80;99.90;;;;;;5042370;28;20222;-67
2023/11/25 05:40:43;;;;;;;5.87;2.17;;;4.80;99.90;;;;;;5042585;28;20193;-66
2023/11/25 05:43:09;;;;;;;3.50;1.70;;;4.80;99.90;;;;;;5041003;28;21018;-67
2023/11/25 05:45:38;;;;;;;5.33;2.17;;;4.90;99.90;;;;;;5040609;28;20186;-67
2023/11/25 05:48:04;;;;;;;4.83;1.93;;;4.80;99.90;;;;;;5045672;28;20419;-67
2023/11/25 05:50:30;;;;;;;4.33;2.37;;;4.90;99.90;;;;;;5040769;28;20537;-67
2023/11/25 05:52:56;;;;;;;3.43;1.70;;;4.80;99.90;;;;;;5039900;28;20200;-67
2023/11/25 05:55:22;;;;;;;5.33;1.80;;;4.80;99.90;;;;;;5037184;28;20817;-66
2023/11/25 05:57:50;;;;;;;3.47;1.80;;;4.70;99.90;;;;;;5041655;28;20491;-67
2023/11/25 06:00:16;;;;;;;3.90;1.50;;;4.80;99.90;;;;;;5041687;28;20925;-68
2023/11/25 06:02:41;;;;;;;2.67;1.70;;;4.80;99.90;;;;;;5037904;28;20461;-68
2023/11/25 06:05:08;;;;;;;9.20;2.70;;;4.80;99.90;;;;;;5035754;28;20841;-67
2023/11/25 06:07:34;;;;;;;4.93;2.13;;;4.70;99.90;;;;;;5038101;28;20191;-67
2023/11/25 06:10:00;;;;;;;7.03;1.70;;;4.80;99.90;;;;;;5040713;28;20465;-67
2023/11/25 06:12:26;;;;;;;5.57;2.57;;;4.80;99.90;;;;;;5039449;28;20176;-67
2023/11/25 06:14:55;;;;;;;4.47;1.90;;;4.80;99.90;;;;;;5043728;28;20203;-67
2023/11/25 06:17:23;;;;;;;4.27;1.83;;;4.70;99.90;;;;;;5040273;28;20430;-67
2023/11/25 06:19:49;;;;;;;5.53;2.07;;;4.70;99.90;;;;;;5041654;28;20840;-67
2023/11/25 06:22:15;;;;;;;7.10;2.10;;;4.60;99.90;;;;;;5043956;28;20433;-67
2023/11/25 06:24:40;;;;;;;7.60;1.80;;;4.70;99.90;;;;;;5043216;28;20415;-67
2023/11/25 06:27:06;;;;;;;4.27;1.80;;;4.60;99.90;;;;;;5036002;28;20618;-67
2023/11/25 06:29:32;;;;;;;2.90;1.70;;;4.70;99.90;;;;;;5040711;28;20199;-67
2023/11/25 06:31:58;;;;;;;4.30;1.73;;;4.70;99.90;;;;;;5041801;28;20460;-67
2023/11/25 06:34:23;;;;;;;5.87;2.07;;;4.70;99.90;;;;;;5037960;28;20438;-67
2023/11/25 06:36:49;;;;;;;3.60;1.80;;;4.70;99.90;;;;;;5040415;28;20203;-67
2023/11/25 06:39:19;;;;;;;3.40;1.93;;;4.70;99.90;;;;;;5039343;28;21278;-67
2023/11/25 06:41:48;;;;;;;4.13;1.87;;;4.70;99.90;;;;;;5042282;28;20267;-69
2023/11/25 06:44:16;;;;;;;3.17;2.00;;;4.70;99.90;;;;;;5039395;28;20820;-67
2023/11/25 06:46:41;;;;;;;4.33;2.13;;;4.70;99.90;;;;;;5036930;28;20923;-67
2023/11/25 06:49:07;;;;;;;9.03;2.10;;;4.60;99.90;;;;;;5038146;28;20461;-67
2023/11/25 06:51:32;;;;;;;3.20;1.80;;;4.80;99.90;;;;;;5044562;28;20179;-67
2023/11/25 06:53:58;;;;;;;5.10;1.87;;;4.80;99.90;;;;;;5041327;28;20225;-67
2023/11/25 06:56:24;;;;;;;7.43;1.80;;;4.80;99.90;;;;;;5037490;28;20402;-67
2023/11/25 06:58:49;;;;;;;4.00;1.87;;;4.80;99.90;;;;;;5038500;28;20259;-68
2023/11/25 07:01:18;;;;;;;4.47;1.60;;;4.80;99.90;;;;;;5042759;28;20216;-67
2023/11/25 07:03:45;;;;;;;3.93;2.37;;;4.80;99.90;;;;;;5037421;28;20242;-67
2023/11/25 07:06:10;;;;;;;6.20;1.80;;;4.80;99.90;;;;;;5038129;28;20434;-68
2023/11/25 07:08:37;;;;;;;5.83;1.80;;;4.70;99.90;;;;;;5033504;28;20437;-67
2023/11/25 07:11:09;;;;;;;5.23;2.43;;;4.70;99.90;;;;;;5037970;28;20187;-67
2023/11/25 07:13:35;;;;;;;3.30;1.87;;;4.70;99.90;;;;;;5041535;28;20557;-67
2023/11/25 07:16:02;;;;;;;5.07;1.90;;;4.60;99.90;;;;;;5041545;28;20509;-68
2023/11/25 07:18:28;;;;;;;10.33;2.10;;;4.50;99.90;;;;;;5040323;28;20229;-68
2023/11/25 07:20:53;;;;;;;6.77;2.03;;;4.60;99.90;;;;;;5038502;28;20430;-68
2023/11/25 07:23:19;;;;;;;7.33;3.00;;;4.60;99.90;;;;;;5032974;28;20234;-68
2023/11/25 07:25:45;;;;;;;5.60;1.90;;;4.60;99.90;;;;;;5041855;28;20191;-68
2023/11/25 07:28:12;;;;;;;3.23;1.60;;;4.60;99.90;;;;;;5040274;28;20238;-68
2023/11/25 07:30:37;;;;;;;7.47;1.97;;;4.50;99.90;;;;;;5041265;28;20461;-68
2023/11/25 07:33:03;;;;;;;4.33;2.03;;;4.50;99.90;;;;;;5041697;28;20431;-68
2023/11/25 07:35:29;;;;;;;4.40;2.07;;;4.50;99.90;;;;;;5039567;28;20650;-68
2023/11/25 07:37:55;;;;;;;8.37;2.17;;;4.50;99.90;;;;;;5037479;28;20530;-68
2023/11/25 07:40:21;;;;;;;5.03;2.20;;;4.50;99.90;;;;;;5034768;28;20457;-68
2023/11/25 07:42:48;;;;;;;8.53;2.10;;;4.60;99.90;;;;;;5041191;28;20203;-68
2023/11/25 07:45:14;;;;;;;4.03;2.23;;;4.60;99.90;;;;;;5039532;28;20180;-68
2023/11/25 07:47:44;;;;;;;4.47;1.80;;;4.50;99.90;;;;;;5039914;28;20438;-68
2023/11/25 07:50:11;;;;;;;5.50;2.33;;;4.60;99.90;;;;;;5038966;28;20508;-68
2023/11/25 07:52:37;;;;;;;8.10;2.40;;;4.60;99.90;;;;;;5040077;28;20529;-68
2023/11/25 07:55:07;;;;;;;6.23;2.37;;;4.70;99.90;;;;;;5038135;28;20426;-68
2023/11/25 07:57:32;;;;;;;5.70;2.20;;;4.70;99.90;;;;;;5043558;28;20893;-67
2023/11/25 07:59:58;;;;;;;5.10;3.20;;;4.80;99.90;;;;;;5045811;28;20816;-68
2023/11/25 08:02:24;;;;;;;3.03;1.57;;;4.80;99.90;;;;;;5046759;28;20623;-67
2023/11/25 08:04:50;;;;;;;14.30;2.67;;;4.90;99.90;;;;;;5044218;28;20183;-68
2023/11/25 08:07:18;;;;;;;7.50;2.10;;;4.90;99.90;;;;;;5043151;28;20928;-67
2023/11/25 08:09:44;;;;;;;5.60;2.20;;;5.00;99.90;;;;;;5038708;28;20493;-67
2023/11/25 08:12:10;;;;;;;8.07;2.60;;;5.00;99.90;;;;;;5040728;28;21340;-67
2023/11/25 08:14:38;;;;;;;5.57;2.27;;;5.10;99.90;;;;;;5043309;28;20712;-68
2023/11/25 08:17:04;;;;;;;9.50;2.97;;;5.10;99.90;;;;;;5042725;28;20607;-67
2023/11/25 08:19:30;;;;;;;7.53;3.00;;;5.10;99.90;;;;;;5040826;28;21106;-67
2023/11/25 08:21:58;;;;;;;10.00;2.53;;;5.20;99.90;;;;;;5038563;28;20481;-67
2023/11/25 08:24:24;;;;;;;6.20;2.60;;;5.30;99.90;;;;;;5041730;28;20235;-68
2023/11/25 08:26:50;;;;;;;4.97;2.70;;;5.30;99.90;;;;;;5041802;28;20442;-68
2023/11/25 08:29:17;;;;;;;4.37;2.10;;;5.40;99.90;;;;;;5036922;28;20192;-67
2023/11/25 08:31:43;;;;;;;8.57;2.70;;;5.50;99.90;;;;;;5040628;28;20206;-67
2023/11/25 08:34:12;;;;;;;11.10;3.00;;;5.50;99.90;;;;;;5036370;28;20534;-67
2023/11/25 08:36:44;;;;;;;9.77;3.67;;;5.50;99.90;;;;;;5044235;28;20173;-67
2023/11/25 08:39:13;;;;;;;8.40;2.70;;;5.60;99.90;;;;;;5041980;28;20415;-68
2023/11/25 08:41:41;;;;;;;7.47;2.70;;;5.60;99.90;;;;;;5040130;28;21007;-68
2023/11/25 08:44:06;;;;;;;7.17;2.60;;;5.60;99.90;;;;;;5042712;28;20966;-68
2023/11/25 08:46:35;;;;;;;8.77;2.73;;;5.60;99.90;;;;;;5042782;28;20415;-68
2023/11/25 08:49:01;;;;;;;10.83;2.83;;;5.60;99.90;;;;;;5036727;28;20228;-68
2023/11/25 08:51:26;;;;;;;6.97;2.70;;;5.60;99.90;;;;;;5042581;28;20521;-68
2023/11/25 08:53:54;;;;;;;7.87;2.83;;;5.60;99.90;;;;;;5043654;28;20230;-69
2023/11/25 08:56:20;;;;;;;7.73;2.70;;;5.80;99.90;;;;;;5041532;28;20240;-68
2023/11/25 08:58:46;;;;;;;7.20;3.23;;;5.80;99.90;;;;;;5044272;28;20422;-68
2023/11/25 09:01:12;;;;;;;14.70;3.73;;;5.90;99.90;;;;;;5033840;28;20440;-68
2023/11/25 09:03:37;;;;;;;7.70;3.20;;;6.00;99.90;;;;;;5038894;28;20196;-68
2023/11/25 09:06:03;;;;;;;9.57;3.63;;;6.10;99.90;;;;;;5041381;28;20267;-68
2023/11/25 09:08:29;;;;;;;8.43;3.97;;;6.00;99.90;;;;;;5038931;28;20706;-68
2023/11/25 09:10:56;;;;;;;10.57;2.90;;;6.10;99.90;;;;;;5040050;28;20441;-67
2023/11/25 09:13:22;;;;;;;11.97;3.50;;;6.10;99.90;;;;;;5035946;28;20203;-68
2023/11/25 09:15:50;;;;;;;10.23;3.03;;;6.10;99.90;;;;;;5036860;28;21449;-68
2023/11/25 09:18:16;;;;;;;9.83;3.63;;;6.00;99.90;;;;;;5037733;28;20248;-68
2023/11/25 09:20:42;;;;;;;6.60;3.33;;;6.00;99.90;;;;;;5043471;28;20437;-68
2023/11/25 09:23:07;;;;;;;13.30;3.03;;;5.90;99.90;;;;;;5040212;28;20484;-68
2023/11/25 09:25:33;;;;;;;7.03;3.00;;;5.90;99.90;;;;;;5040259;28;21192;-68
2023/11/25 09:27:59;;;;;;;7.43;4.60;;;5.90;99.90;;;;;;5043188;28;20232;-68
2023/11/25 09:30:24;;;;;;;8.43;3.07;;;6.00;99.90;;;;;;5041278;28;20215;-68
2023/11/25 09:32:50;;;;;;;7.10;3.23;;;5.90;99.90;;;;;;5039930;28;20199;-68
2023/11/25 09:35:16;;;;;;;13.63;3.93;;;5.90;99.90;;;;;;5041242;28;20333;-68
2023/11/25 09:37:43;;;;;;;13.50;4.10;;;6.00;99.90;;;;;;5037742;28;20180;-68
2023/11/25 09:40:18;;;;;;;23.13;5.00;;;6.20;99.90;;;;;;5042362;28;20179;-68
2023/11/25 09:42:46;;;;;;;6.40;3.23;;;6.20;99.90;;;;;;5041002;28;20468;-68
2023/11/25 09:45:12;;;;;;;9.97;3.20;;;6.20;99.90;;;;;;5042329;28;20415;-68
2023/11/25 09:47:39;;;;;;;7.33;3.40;;;6.20;99.90;;;;;;5043650;28;20419;-68
2023/11/25 09:50:08;;;;;;;5.87;3.30;;;6.20;99.90;;;;;;5040519;28;20450;-68
2023/11/25 09:52:47;;;;;;;17.10;3.73;;;6.30;99.90;;;;;;5039982;28;21566;-68
2023/11/25 09:55:16;;;;;;;9.60;3.63;;;6.40;99.90;;;;;;5042062;28;20509;-68
2023/11/25 09:57:42;;;;;;;6.07;3.73;;;6.30;99.90;;;;;;5038363;28;21211;-68
2023/11/25 10:00:11;;;;;;;10.50;4.27;;;6.40;99.90;;;;;;5036775;28;20452;-68
2023/11/25 10:02:39;;;;;;;8.33;3.23;;;6.50;99.90;;;;;;5037881;28;20441;-68
2023/11/25 10:05:05;;;;;;;11.73;3.50;;;6.50;99.90;;;;;;5040896;28;20426;-68
2023/11/25 10:07:31;;;;;;;7.70;3.63;;;6.50;99.90;;;;;;5040843;28;20458;-68
2023/11/25 10:09:56;;;;;;;9.60;4.53;;;6.40;99.90;;;;;;5036102;28;20462;-68
2023/11/25 10:12:23;;;;;;;12.97;3.40;;;6.30;99.90;;;;;;5040207;28;20269;-68
2023/11/25 10:14:52;;;;;;;14.77;4.33;;;6.20;99.90;;;;;;5043194;28;20182;-68
2023/11/25 10:17:19;;;;;;;14.27;4.13;;;6.20;99.90;;;;;;5034095;28;21147;-68
2023/11/25 10:19:48;;;;;;;10.37;4.17;;;6.30;99.90;;;;;;5040577;28;20990;-68
2023/11/25 10:22:17;;;;;;;14.00;3.90;;;6.20;99.90;;;;;;5045441;28;20905;-68
2023/11/25 10:24:52;;;;;;;7.57;3.00;;;6.20;99.90;;;;;;5041631;28;20986;-68
2023/11/25 10:27:22;;;;;;;13.00;3.90;;;6.30;99.90;;;;;;5042392;28;20418;-68
2023/11/25 10:29:49;;;;;;;15.10;4.50;;;6.30;99.90;;;;;;5037539;28;20616;-68
2023/11/25 10:32:15;;;;;;;10.40;2.93;;;6.40;99.90;;;;;;5043209;28;20427;-68
2023/11/25 10:34:40;;;;;;;11.37;3.30;;;6.40;99.90;;;;;;5038114;28;20429;-68
2023/11/25 10:37:07;;;;;;;12.83;4.77;;;6.40;99.90;;;;;;5042445;28;20180;-68
2023/11/25 10:39:34;;;;;;;14.00;3.70;;;6.30;99.90;;;;;;5042065;28;20180;-68
2023/11/25 10:42:03;;;;;;;12.70;2.90;;;6.30;99.90;;;;;;5041072;28;20916;-68
2023/11/25 10:44:28;;;;;;;8.13;3.50;;;6.30;99.90;;;;;;5041918;28;20572;-68
2023/11/25 10:46:56;;;;;;;13.03;4.10;;;6.40;99.90;;;;;;5038721;28;20761;-68
2023/11/25 10:49:22;;;;;;;7.00;3.17;;;6.30;99.90;;;;;;5039714;28;20187;-68
2023/11/25 10:51:52;;;;;;;10.70;4.50;;;6.30;99.90;;;;;;5037863;28;20438;-68
2023/11/25 10:54:26;;;;;;;15.30;3.13;;;6.30;99.90;;;;;;5037252;28;21057;-68
2023/11/25 10:56:54;;;;;;;12.37;3.87;;;6.20;99.90;;;;;;5042802;28;20429;-68
2023/11/25 10:59:23;;;;;;;8.17;2.80;;;6.30;99.90;;;;;;5038763;28;20839;-68
2023/11/25 11:01:50;;;;;;;10.10;3.90;;;6.30;99.90;;;;;;5039750;28;20433;-68
2023/11/25 11:04:26;;;;;;;6.27;2.80;;;6.20;99.90;;;;;;5037674;28;20927;-68
2023/11/25 11:06:56;;;;;;;8.00;3.07;;;6.10;99.90;;;;;;5038086;28;20841;-68
2023/11/25 11:09:27;;;;;;;10.17;3.40;;;6.10;99.90;;;;;;5040443;28;20469;-67
2023/11/25 11:11:58;;;;;;;11.20;3.43;;;6.10;99.90;;;;;;5041572;28;20407;-67
2023/11/25 11:14:28;;;;;;;15.33;4.20;;;6.20;99.90;;;;;;5037882;28;21080;-68
2023/11/25 11:17:27;;;;;;;8.93;3.27;;;6.10;99.90;;;;;;5041985;28;20423;-67
2023/11/25 11:19:58;;;;;;;13.30;3.80;;;6.20;99.90;;;;;;5036047;28;20430;-67
2023/11/25 11:22:25;;;;;;;10.23;3.23;;;6.20;99.90;;;;;;5036516;28;20439;-67
2023/11/25 11:25:04;;;;;;;11.20;3.67;;;6.30;99.90;;;;;;5043698;28;20979;-66
2023/11/25 11:27:55;;;;;;;10.07;3.90;;;6.30;99.90;;;;;;5039501;28;20870;-66
2023/11/25 11:30:38;;;;;;;9.57;4.50;;;6.30;99.90;;;;;;5034624;28;20466;-67
2023/11/25 11:33:05;;;;;;;9.90;3.50;;;6.30;99.90;;;;;;5041655;28;20827;-67
2023/11/25 11:35:37;;;;;;;11.53;3.40;;;6.30;99.90;;;;;;5043097;28;20934;-67
2023/11/25 11:38:30;;;;;;;15.33;4.63;;;6.20;99.90;;;;;;5046846;28;20418;-67
2023/11/25 11:40:59;;;;;;;13.07;3.70;;;6.20;99.90;;;;;;5040785;28;20418;-67
2023/11/25 11:43:25;;;;;;;10.47;3.97;;;6.30;99.90;;;;;;5042161;28;20892;-67
2023/11/25 11:45:52;;;;;;;10.03;3.77;;;6.30;99.90;;;;;;5040426;28;20459;-68
2023/11/25 11:48:19;;;;;;;8.50;3.20;;;6.40;99.90;;;;;;5038345;28;21087;-67
2023/11/25 11:50:50;;;;;;;11.57;4.20;;;6.40;99.90;;;;;;5041681;28;20506;-67
2023/11/25 11:53:16;;;;;;;11.70;3.93;;;6.40;99.90;;;;;;5040542;28;21410;-67
2023/11/25 11:55:55;;;;;;;11.20;4.27;;;6.50;99.90;;;;;;5037215;28;20503;-67
2023/11/25 11:58:25;;;;;;;12.00;4.17;;;6.50;99.90;;;;;;5044067;28;20931;-68
2023/11/25 12:01:00;;;;;;;11.43;3.60;;;6.40;99.90;;;;;;5043285;28;20425;-68
2023/11/25 12:03:26;;;;;;;14.07;3.77;;;6.40;99.90;;;;;;5039239;28;20438;-68
2023/11/25 12:05:52;;;;;;;13.27;4.20;;;6.40;99.90;;;;;;5040808;28;20421;-68
2023/11/25 12:08:19;;;;;;;9.77;3.80;;;6.40;99.90;;;;;;5039844;28;20441;-68
2023/11/25 12:10:45;;;;;;;15.20;4.03;;;6.40;99.90;;;;;;5042568;28;20557;-68
2023/11/25 12:13:11;;;;;;;8.30;3.80;;;6.30;99.90;;;;;;5037066;28;21453;-67
2023/11/25 12:15:38;;;;;;;16.73;4.57;;;6.30;99.90;;;;;;5043256;28;20516;-68
2023/11/25 12:18:05;;;;;;;7.97;3.50;;;6.40;99.90;;;;;;5056369;28;21003;-67
2023/11/25 12:20:31;;;;;;;10.33;3.83;;;6.40;99.90;;;;;;5042694;28;20426;-67
2023/11/25 12:22:59;;;;;;;11.43;3.60;;;6.40;99.90;;;;;;5045546;28;20485;-67
2023/11/25 12:25:26;;;;;;;10.33;3.77;;;6.40;99.90;;;;;;5041093;28;20453;-67
2023/11/25 12:28:01;;;;;;;8.00;3.23;;;6.40;99.90;;;;;;5045826;28;20557;-67
2023/11/25 12:30:28;;;;;;;15.30;4.10;;;6.40;99.90;;;;;;5040239;28;20520;-66
2023/11/25 12:32:55;;;;;;;11.37;3.20;;;6.30;99.90;;;;;;5043666;28;21073;-67
2023/11/25 12:35:20;;;;;;;9.30;3.20;;;6.20;99.90;;;;;;5043462;28;20179;-67
2023/11/25 12:37:46;;;;;;;15.63;3.83;;;6.10;99.90;;;;;;5042827;28;20804;-67
2023/11/25 12:40:23;;;;;;;13.13;3.80;;;6.20;99.90;;;;;;5041243;28;20215;-67
2023/11/25 12:42:51;;;;;;;7.70;3.23;;;6.10;99.90;;;;;;5047440;28;21070;-66
2023/11/25 12:45:29;;;;;;;10.53;5.03;;;6.20;99.90;;;;;;5043401;28;20460;-66
2023/11/25 12:47:56;;;;;;;8.20;3.53;;;6.10;99.90;;;;;;5041208;28;20429;-67
2023/11/25 12:50:26;;;;;;;8.53;3.60;;;6.00;99.90;;;;;;5044393;28;20458;-67
2023/11/25 12:53:13;;;;;;;9.13;3.60;;;6.00;99.90;;;;;;5042284;28;20543;-67
2023/11/25 12:55:44;;;;;;;12.13;4.03;;;6.10;99.90;;;;;;5041130;28;20624;-67